SBLO

Details ICAO SBLO (LDB)
Name Londrina
Region Brazil
Timezone America/Sao_Paulo (UTC-2.0)
Plans Departing 52
Arriving 50
Stats Elevation 1,867 ft / 569 m (AMSL)
Location -23.333624° -51.130072°
Runways 1
Magnetic Variation 19.075° W
Sunrise 2017-12-17 08:35:05 UTC / 2017-12-17 06:35:05 Local
Sunset 2017-12-17 22:09:04 UTC / 2017-12-17 20:09:04 Local
Advertisement - Login to hide

Runways

ID Width Length Bearing (true) Bearing (mag) Surface Threshold Offset Overrun Length
13 148 ft / 45 m 6,926 ft / 2,111 m 110.29° 129.36° Asphalt 975 ft / 297 m 0 ft / 0 m
31 148 ft / 45 m 6,926 ft / 2,111 m 290.28° 309.35° Asphalt 0 ft / 0 m 100 ft / 30 m

Map

Weather


0- 5 10 15 20 25 30 35+ Temperature / ° C

Clouds and Precipitation
Forecast for 2017-12-17 12:00 UTC. Updated an hour ago

Ground ~20,000 ft ~40,000 ft Winds

METAR

SBLO 171200Z 36006KT CAVOK 29/21 Q1016

TAF

TAF SBLO 170900Z 1712/1724 35005KT 9999 SCT035 TN28/1712Z TX33/1717Z PROB30 1718/1721 VCSH FEW035TCU BECMG 1721/1724 02006KT FEW030 RMK PDN

Frequencies

Recorded 127.67 MHz ATIS
Approach 129.70 MHz APP
Tower 118.40 MHz TWR
Approach 129.69 MHz APP
Warning: Do not use this data for real-world aviation or navigation. No guarantee of current accuracy is given.